Time;durP1;ratioP1;P1;durP2;ratioP2;P2;SDS_P1;SDS_P2;PMS_P1;PMS_P2;Temp;Humidity;BMP_temperature;BMP_pressure;BME280_temperature;BME280_humidity;BME280_pressure;Samples;Min_cycle;Max_cycle;Signal;HPM_P1;HPM_P2
2022/03/22 00:03:15;;;;;;;16.92;14.45;;;;;;;;;;10187624;28;20081;-58
2022/03/22 00:08:15;;;;;;;17.95;14.73;;;;;;;;;;10194063;28;20117;-57
2022/03/22 00:13:13;;;;;;;24.52;13.73;;;;;;;;;;10181459;28;20554;-57
2022/03/22 00:18:11;;;;;;;16.13;13.05;;;;;;;;;;10198828;28;20088;-58
2022/03/22 00:23:10;;;;;;;20.52;12.73;;;;;;;;;;10198105;28;20093;-58
2022/03/22 00:28:09;;;;;;;26.02;13.52;;;;;;;;;;10190787;28;20073;-58
2022/03/22 00:33:08;;;;;;;24.90;17.75;;;;;;;;;;10197358;28;20074;-57
2022/03/22 00:38:08;;;;;;;29.83;19.08;;;;;;;;;;10197697;28;20195;-58
2022/03/22 00:43:06;;;;;;;43.30;27.65;;;;;;;;;;10192619;28;20518;-58
2022/03/22 00:48:07;;;;;;;30.35;18.17;;;;;;;;;;10186969;28;20443;-58
2022/03/22 00:53:07;;;;;;;24.80;16.88;;;;;;;;;;10197170;28;20507;-58
2022/03/22 00:58:05;;;;;;;22.50;16.42;;;;;;;;;;10196425;28;20088;-58
2022/03/22 01:03:04;;;;;;;25.50;15.98;;;;;;;;;;10195496;28;20100;-57
2022/03/22 01:08:06;;;;;;;21.83;16.25;;;;;;;;;;10196256;28;20037;-58
2022/03/22 01:13:06;;;;;;;25.23;16.67;;;;;;;;;;10196124;28;20074;-58
2022/03/22 01:18:06;;;;;;;29.45;17.45;;;;;;;;;;10191597;28;20363;-58
2022/03/22 01:23:07;;;;;;;29.30;20.35;;;;;;;;;;10193012;28;20041;-58
2022/03/22 01:28:07;;;;;;;32.17;20.13;;;;;;;;;;10195555;28;20081;-58
2022/03/22 01:33:06;;;;;;;23.50;17.13;;;;;;;;;;10195741;28;20046;-58
2022/03/22 01:38:06;;;;;;;21.95;17.33;;;;;;;;;;10194012;28;20108;-59
2022/03/22 01:43:05;;;;;;;21.70;16.27;;;;;;;;;;10189528;28;20088;-57
2022/03/22 01:48:05;;;;;;;40.88;25.60;;;;;;;;;;10190962;28;20582;-57
2022/03/22 01:53:03;;;;;;;48.30;30.98;;;;;;;;;;10180511;28;20892;-59
2022/03/22 01:58:03;;;;;;;25.80;19.17;;;;;;;;;;10194493;28;20077;-58
2022/03/22 02:08:16;;;;;;;;;;;;;;;;;;10190737;28;20092;-59
2022/03/22 02:13:18;;;;;;;19.40;14.75;;;;;;;;;;10190179;28;19960;-58
2022/03/22 02:18:16;;;;;;;56.42;31.63;;;;;;;;;;10188884;28;20483;-59
2022/03/22 02:23:17;;;;;;;50.78;27.65;;;;;;;;;;10189023;28;20072;-58
2022/03/22 02:28:17;;;;;;;23.38;15.75;;;;;;;;;;10188300;28;20065;-59
2022/03/22 02:33:20;;;;;;;24.17;16.57;;;;;;;;;;10188326;28;20081;-59
2022/03/22 02:38:19;;;;;;;23.25;15.75;;;;;;;;;;10187986;28;20074;-58
2022/03/22 02:43:18;;;;;;;21.73;16.25;;;;;;;;;;10188631;28;20077;-59
2022/03/22 02:48:18;;;;;;;21.83;16.08;;;;;;;;;;10188223;28;20085;-59
2022/03/22 02:53:16;;;;;;;25.65;15.32;;;;;;;;;;10192716;28;20073;-58
2022/03/22 02:58:14;;;;;;;20.92;14.13;;;;;;;;;;10192235;28;20399;-58
2022/03/22 03:03:21;;;;;;;20.77;14.35;;;;;;;;;;10192082;28;20557;-58
2022/03/22 03:08:26;;;;;;;21.52;13.65;;;;;;;;;;10187986;28;20506;-59
2022/03/22 03:13:25;;;;;;;28.17;19.83;;;;;;;;;;10188538;28;20076;-59
2022/03/22 03:18:24;;;;;;;25.77;18.00;;;;;;;;;;10191076;28;20061;-58
2022/03/22 03:23:22;;;;;;;26.60;19.65;;;;;;;;;;10191066;28;20054;-57
2022/03/22 03:28:21;;;;;;;33.80;20.30;;;;;;;;;;10192484;28;20510;-58
2022/03/22 03:33:19;;;;;;;31.23;19.88;;;;;;;;;;10191945;28;20710;-58
2022/03/22 03:38:19;;;;;;;24.13;17.80;;;;;;;;;;10193459;28;20071;-59
2022/03/22 03:43:17;;;;;;;22.73;16.75;;;;;;;;;;10199554;28;20073;-57
2022/03/22 03:48:15;;;;;;;23.17;16.83;;;;;;;;;;10195693;28;20069;-57
2022/03/22 03:53:14;;;;;;;34.42;21.05;;;;;;;;;;10194800;28;20073;-58
2022/03/22 03:58:13;;;;;;;36.22;22.88;;;;;;;;;;10199053;28;20088;-58
2022/03/22 04:03:12;;;;;;;26.65;18.80;;;;;;;;;;10198753;28;20470;-58
2022/03/22 04:08:10;;;;;;;31.52;21.80;;;;;;;;;;10199032;28;20085;-58
2022/03/22 04:13:09;;;;;;;24.88;17.10;;;;;;;;;;10198758;28;20085;-58
2022/03/22 04:18:10;;;;;;;31.08;17.42;;;;;;;;;;10198766;28;20053;-59
2022/03/22 04:23:08;;;;;;;22.30;16.08;;;;;;;;;;10197553;28;20074;-58
2022/03/22 04:33:25;;;;;;;33.03;18.85;;;;;;;;;;10194281;28;20514;-57
2022/03/22 04:38:25;;;;;;;35.75;19.45;;;;;;;;;;10197923;28;20084;-58
2022/03/22 04:43:23;;;;;;;32.63;19.52;;;;;;;;;;10190121;28;20491;-56
2022/03/22 04:48:21;;;;;;;27.30;17.88;;;;;;;;;;10192811;28;20070;-58
2022/03/22 04:58:38;;;;;;;27.17;17.85;;;;;;;;;;10187459;28;20128;-57
2022/03/22 05:03:37;;;;;;;26.50;18.25;;;;;;;;;;10195388;28;20479;-59
2022/03/22 05:08:37;;;;;;;23.30;16.17;;;;;;;;;;10192558;28;20081;-58
2022/03/22 05:13:35;;;;;;;21.98;15.27;;;;;;;;;;10187655;28;20078;-57
2022/03/22 05:18:36;;;;;;;18.60;14.77;;;;;;;;;;10196501;28;20084;-57
2022/03/22 05:23:34;;;;;;;20.08;14.50;;;;;;;;;;10191278;28;20077;-57
2022/03/22 05:28:34;;;;;;;28.08;16.48;;;;;;;;;;10193669;28;20062;-57
2022/03/22 05:33:32;;;;;;;28.63;20.92;;;;;;;;;;10187540;28;20073;-59
2022/03/22 05:38:30;;;;;;;33.95;22.25;;;;;;;;;;10191100;28;20100;-57
2022/03/22 05:43:29;;;;;;;29.90;21.60;;;;;;;;;;10189196;28;20074;-57
2022/03/22 05:48:29;;;;;;;33.40;23.75;;;;;;;;;;10190831;28;20072;-57
2022/03/22 05:53:27;;;;;;;39.75;26.50;;;;;;;;;;10186767;28;20085;-57
2022/03/22 05:58:26;;;;;;;36.53;22.48;;;;;;;;;;10183630;28;20072;-55
2022/03/22 06:03:25;;;;;;;34.50;24.35;;;;;;;;;;10176417;28;20090;-58
2022/03/22 06:08:25;;;;;;;53.13;35.83;;;;;;;;;;10168703;28;20061;-57
2022/03/22 06:13:23;;;;;;;53.25;36.00;;;;;;;;;;10182128;28;20601;-57
2022/03/22 06:18:21;;;;;;;33.47;18.65;;;;;;;;;;10169079;28;20092;-58
2022/03/22 06:23:19;;;;;;;28.52;17.13;;;;;;;;;;10177926;28;20077;-58
2022/03/22 06:28:19;;;;;;;31.35;20.35;;;;;;;;;;10189246;28;20076;-59
2022/03/22 06:33:18;;;;;;;38.28;23.50;;;;;;;;;;10182081;28;20570;-59
2022/03/22 06:38:16;;;;;;;249.23;48.47;;;;;;;;;;10165449;28;20497;-57
2022/03/22 06:43:15;;;;;;;66.45;29.30;;;;;;;;;;10165021;28;20399;-58
2022/03/22 06:48:15;;;;;;;35.78;22.80;;;;;;;;;;10164879;28;20085;-57
2022/03/22 06:53:14;;;;;;;32.00;20.83;;;;;;;;;;10179155;28;20507;-57
2022/03/22 06:58:14;;;;;;;34.17;20.23;;;;;;;;;;10186823;28;20180;-58
2022/03/22 07:03:13;;;;;;;37.35;23.33;;;;;;;;;;10174765;28;20073;-58
2022/03/22 07:08:13;;;;;;;30.60;19.73;;;;;;;;;;10172989;28;20161;-56
2022/03/22 07:13:11;;;;;;;23.95;15.23;;;;;;;;;;10167968;28;20066;-58
2022/03/22 07:18:11;;;;;;;29.40;16.55;;;;;;;;;;10169884;28;20062;-58
2022/03/22 07:23:09;;;;;;;34.15;16.00;;;;;;;;;;10167058;28;20081;-58
2022/03/22 07:28:09;;;;;;;31.27;18.00;;;;;;;;;;10166592;28;20587;-58
2022/03/22 07:33:07;;;;;;;22.75;15.30;;;;;;;;;;10167081;28;20061;-57
2022/03/22 07:38:05;;;;;;;20.13;14.65;;;;;;;;;;10169532;28;20069;-57
2022/03/22 07:43:03;;;;;;;22.25;13.20;;;;;;;;;;10174291;28;20070;-57
2022/03/22 07:48:03;;;;;;;23.98;14.38;;;;;;;;;;10175510;28;20069;-57
2022/03/22 07:53:01;;;;;;;23.65;13.32;;;;;;;;;;10194701;28;20073;-57
2022/03/22 07:58:00;;;;;;;31.65;17.35;;;;;;;;;;10196990;28;20100;-58
2022/03/22 08:03:00;;;;;;;26.25;14.77;;;;;;;;;;10193310;28;20104;-59
2022/03/22 08:08:00;;;;;;;18.02;10.05;;;;;;;;;;10176479;28;20097;-58
2022/03/22 08:13:19;;;;;;;13.50;8.25;;;;;;;;;;10176078;28;20080;-57
2022/03/22 08:18:17;;;;;;;12.18;8.07;;;;;;;;;;10179958;28;20073;-58
2022/03/22 08:23:17;;;;;;;17.00;9.10;;;;;;;;;;10177455;28;20073;-59
2022/03/22 08:28:15;;;;;;;14.00;7.82;;;;;;;;;;10186862;28;20074;-58
2022/03/22 08:33:13;;;;;;;19.40;8.20;;;;;;;;;;10190870;28;20528;-58
2022/03/22 08:38:11;;;;;;;20.77;8.63;;;;;;;;;;10196906;28;20427;-59
2022/03/22 08:43:11;;;;;;;21.45;9.68;;;;;;;;;;10196328;28;20101;-59
2022/03/22 08:48:11;;;;;;;16.95;8.90;;;;;;;;;;10196465;28;20073;-59
2022/03/22 08:53:09;;;;;;;19.70;8.60;;;;;;;;;;10196368;28;20072;-58
2022/03/22 08:58:15;;;;;;;18.48;8.70;;;;;;;;;;10164230;28;20673;-58
2022/03/22 09:03:13;;;;;;;16.02;8.80;;;;;;;;;;10164393;28;20073;-56
2022/03/22 09:08:12;;;;;;;16.40;8.23;;;;;;;;;;10170020;28;20065;-57
2022/03/22 09:13:10;;;;;;;17.42;9.02;;;;;;;;;;10165422;28;20070;-58
2022/03/22 09:18:14;;;;;;;19.67;8.73;;;;;;;;;;10172931;28;20470;-61
2022/03/22 09:23:13;;;;;;;22.80;8.05;;;;;;;;;;10168012;28;20081;-57
2022/03/22 09:28:11;;;;;;;25.42;10.27;;;;;;;;;;10168950;28;20058;-58
2022/03/22 09:33:12;;;;;;;23.52;8.02;;;;;;;;;;10168377;28;20068;-58
2022/03/22 09:38:10;;;;;;;47.90;10.05;;;;;;;;;;10171828;28;20073;-58
2022/03/22 09:43:09;;;;;;;21.48;7.13;;;;;;;;;;10179083;28;20525;-58
2022/03/22 09:48:07;;;;;;;12.52;6.18;;;;;;;;;;10179039;28;20065;-59
2022/03/22 09:53:07;;;;;;;15.20;6.25;;;;;;;;;;10165760;28;20073;-60
2022/03/22 09:58:05;;;;;;;16.02;6.65;;;;;;;;;;10165219;28;20393;-61
2022/03/22 10:03:04;;;;;;;16.17;7.65;;;;;;;;;;10178089;28;20096;-61
2022/03/22 10:08:05;;;;;;;28.80;6.45;;;;;;;;;;10170983;28;20073;-61
2022/03/22 10:13:05;;;;;;;18.30;5.93;;;;;;;;;;10166995;28;20071;-61
2022/03/22 10:18:05;;;;;;;18.30;6.75;;;;;;;;;;10159503;28;20545;-60
2022/03/22 10:23:05;;;;;;;18.20;5.65;;;;;;;;;;10173253;28;20070;-61
2022/03/22 10:28:05;;;;;;;21.02;7.07;;;;;;;;;;10172693;28;20069;-61
2022/03/22 10:33:05;;;;;;;37.15;7.43;;;;;;;;;;10166982;28;20680;-61
2022/03/22 10:38:05;;;;;;;21.30;6.68;;;;;;;;;;10192677;28;20427;-60
2022/03/22 10:43:04;;;;;;;20.55;7.68;;;;;;;;;;10187072;28;20082;-60
2022/03/22 10:48:04;;;;;;;24.10;6.93;;;;;;;;;;10173926;28;20149;-60
2022/03/22 10:53:02;;;;;;;27.42;8.05;;;;;;;;;;10183516;28;20089;-61
2022/03/22 10:58:02;;;;;;;16.15;7.07;;;;;;;;;;10180933;28;20286;-59
2022/03/22 11:03:01;;;;;;;24.70;7.60;;;;;;;;;;10182702;28;20471;-61
2022/03/22 11:08:02;;;;;;;17.65;7.60;;;;;;;;;;10175415;28;20062;-59
2022/03/22 11:13:01;;;;;;;24.20;7.32;;;;;;;;;;10164019;28;20062;-60
2022/03/22 11:18:01;;;;;;;27.70;8.65;;;;;;;;;;10163989;28;20074;-60
2022/03/22 11:23:01;;;;;;;39.92;9.07;;;;;;;;;;10179648;28;20077;-60
2022/03/22 11:28:00;;;;;;;25.00;8.30;;;;;;;;;;10189652;28;20066;-59
2022/03/22 11:38:14;;;;;;;;;;;;;;;;;;10191732;28;20046;-60
2022/03/22 11:43:17;;;;;;;25.70;9.68;;;;;;;;;;10183456;28;19972;-59
2022/03/22 11:48:17;;;;;;;31.85;8.02;;;;;;;;;;10185626;28;20082;-60
2022/03/22 11:53:18;;;;;;;27.83;8.45;;;;;;;;;;10189259;28;20480;-60
2022/03/22 11:58:20;;;;;;;36.22;9.80;;;;;;;;;;10187664;28;20080;-60
2022/03/22 12:03:22;;;;;;;37.38;9.02;;;;;;;;;;10190570;28;20096;-60
2022/03/22 12:08:21;;;;;;;40.65;8.20;;;;;;;;;;10191938;28;20074;-60
2022/03/22 12:13:23;;;;;;;39.50;9.63;;;;;;;;;;10194126;28;20066;-60
2022/03/22 12:18:22;;;;;;;46.88;9.38;;;;;;;;;;10194332;28;20073;-60
2022/03/22 12:23:20;;;;;;;51.75;9.50;;;;;;;;;;10194050;28;20073;-60
2022/03/22 12:28:19;;;;;;;45.92;11.73;;;;;;;;;;10194502;28;20073;-60
2022/03/22 12:33:21;;;;;;;48.08;10.10;;;;;;;;;;10192384;28;20073;-60
2022/03/22 12:38:20;;;;;;;39.38;8.18;;;;;;;;;;10193454;28;20088;-60
2022/03/22 12:43:22;;;;;;;36.75;7.82;;;;;;;;;;10196734;28;20084;-60
2022/03/22 12:48:21;;;;;;;50.65;10.75;;;;;;;;;;10197021;28;20072;-60
2022/03/22 12:53:22;;;;;;;34.30;7.10;;;;;;;;;;10193037;28;20526;-60
2022/03/22 12:58:26;;;;;;;33.35;8.02;;;;;;;;;;10196105;28;20491;-60
2022/03/22 13:03:29;;;;;;;41.17;6.63;;;;;;;;;;10196117;28;20493;-60
2022/03/22 13:11:26;;;;;;;47.87;6.70;;;;;;;;;;10195936;28;20330;-60
2022/03/22 13:19:06;;;;;;;27.15;5.68;;;;;;;;;;10195641;28;20050;-60
2022/03/22 13:24:05;;;;;;;30.88;5.75;;;;;;;;;;10190897;28;20077;-60
2022/03/22 13:29:14;;;;;;;26.88;6.85;;;;;;;;;;10190529;28;20071;-60
2022/03/22 13:34:22;;;;;;;25.75;6.60;;;;;;;;;;10190249;28;20077;-60
2022/03/22 13:39:24;;;;;;;18.48;6.10;;;;;;;;;;10190009;28;20657;-60
2022/03/22 13:44:26;;;;;;;56.20;16.67;;;;;;;;;;10189870;28;20107;-60
2022/03/22 13:49:33;;;;;;;25.17;8.30;;;;;;;;;;10190071;28;20419;-60
2022/03/22 13:54:31;;;;;;;12.82;5.07;;;;;;;;;;10189355;28;20076;-60
2022/03/22 13:59:29;;;;;;;13.52;4.95;;;;;;;;;;10189541;28;20459;-60
2022/03/22 14:04:29;;;;;;;17.73;4.97;;;;;;;;;;10190469;28;20093;-60
2022/03/22 14:09:27;;;;;;;26.02;9.15;;;;;;;;;;10189485;28;20077;-60
2022/03/22 14:14:26;;;;;;;21.85;7.70;;;;;;;;;;10188335;28;20077;-60
2022/03/22 14:19:26;;;;;;;28.67;7.78;;;;;;;;;;10193470;28;20511;-60
2022/03/22 14:24:26;;;;;;;22.73;6.07;;;;;;;;;;10189415;28;20073;-60
2022/03/22 14:29:24;;;;;;;24.08;5.03;;;;;;;;;;10182008;28;20459;-59
2022/03/22 14:39:38;;;;;;;;;;;;;;;;;;10193530;28;20082;-60
2022/03/22 14:44:41;;;;;;;19.85;4.70;;;;;;;;;;10185540;28;20405;-59
2022/03/22 14:49:39;;;;;;;15.40;4.10;;;;;;;;;;10192621;28;20041;-60
2022/03/22 14:54:37;;;;;;;22.15;6.93;;;;;;;;;;10188877;28;20073;-60
2022/03/22 14:59:40;;;;;;;20.63;5.35;;;;;;;;;;10192198;28;20419;-60
2022/03/22 15:04:38;;;;;;;21.55;5.22;;;;;;;;;;10191830;28;20132;-60
2022/03/22 15:09:38;;;;;;;20.50;4.13;;;;;;;;;;10183000;28;20080;-60
2022/03/22 15:14:37;;;;;;;12.98;5.68;;;;;;;;;;10191942;28;20050;-60
2022/03/22 15:19:37;;;;;;;20.77;6.53;;;;;;;;;;10191893;28;20542;-60
2022/03/22 15:24:35;;;;;;;16.15;6.28;;;;;;;;;;10190946;28;20046;-60
2022/03/22 15:29:37;;;;;;;11.68;4.50;;;;;;;;;;10188641;28;20069;-61
2022/03/22 15:34:57;;;;;;;15.68;5.97;;;;;;;;;;10189883;28;20541;-60
2022/03/22 15:39:55;;;;;;;17.25;5.90;;;;;;;;;;10195410;28;20538;-60
2022/03/22 15:44:53;;;;;;;14.27;6.70;;;;;;;;;;10194731;28;20083;-60
2022/03/22 15:49:52;;;;;;;37.50;9.07;;;;;;;;;;10196348;28;20515;-60
2022/03/22 15:54:52;;;;;;;21.55;6.65;;;;;;;;;;10199084;28;20419;-61
2022/03/22 15:59:56;;;;;;;13.55;5.22;;;;;;;;;;10199356;28;20074;-60
2022/03/22 16:04:54;;;;;;;22.90;8.98;;;;;;;;;;10198540;28;20096;-60
2022/03/22 16:09:54;;;;;;;14.15;6.88;;;;;;;;;;10199020;28;20089;-59
2022/03/22 16:14:53;;;;;;;13.98;5.97;;;;;;;;;;10198565;28;20046;-60
2022/03/22 16:19:51;;;;;;;15.73;6.70;;;;;;;;;;10190588;28;20065;-60
2022/03/22 16:24:51;;;;;;;20.15;10.10;;;;;;;;;;10195525;28;20077;-60
2022/03/22 16:29:50;;;;;;;23.15;12.15;;;;;;;;;;10193404;28;20065;-60
2022/03/22 16:40:05;;;;;;;24.73;13.00;;;;;;;;;;10185380;28;20507;-60
2022/03/22 16:45:05;;;;;;;13.75;9.25;;;;;;;;;;10193507;28;20089;-60
2022/03/22 16:50:04;;;;;;;16.48;9.75;;;;;;;;;;10194134;28;20092;-61
2022/03/22 16:55:05;;;;;;;20.33;8.85;;;;;;;;;;10196958;28;20093;-60
2022/03/22 17:00:07;;;;;;;14.95;8.90;;;;;;;;;;10196773;28;20080;-60
2022/03/22 17:05:07;;;;;;;11.05;8.35;;;;;;;;;;10196480;28;20466;-60
2022/03/22 17:10:06;;;;;;;20.88;10.10;;;;;;;;;;10196040;28;20038;-60
2022/03/22 17:15:07;;;;;;;30.55;16.08;;;;;;;;;;10196509;28;20225;-60
2022/03/22 17:20:07;;;;;;;46.78;28.02;;;;;;;;;;10195938;28;20077;-60
2022/03/22 17:25:07;;;;;;;19.75;10.52;;;;;;;;;;10195503;28;20100;-60
2022/03/22 17:30:07;;;;;;;20.88;11.80;;;;;;;;;;10194432;28;20065;-59
2022/03/22 17:35:07;;;;;;;16.08;10.15;;;;;;;;;;10193555;28;20089;-59
2022/03/22 17:40:07;;;;;;;20.40;11.52;;;;;;;;;;10177940;28;20081;-59
2022/03/22 17:45:07;;;;;;;9.88;6.57;;;;;;;;;;10168693;28;20330;-59
2022/03/22 17:50:08;;;;;;;12.00;7.15;;;;;;;;;;10162781;28;20073;-60
2022/03/22 17:55:09;;;;;;;13.18;8.88;;;;;;;;;;10182579;28;20073;-60
2022/03/22 18:00:11;;;;;;;15.23;9.10;;;;;;;;;;10184428;28;20069;-61
2022/03/22 18:05:13;;;;;;;15.35;7.95;;;;;;;;;;10175070;28;20093;-61
2022/03/22 18:10:12;;;;;;;29.65;12.25;;;;;;;;;;10189316;28;20487;-60
2022/03/22 18:15:13;;;;;;;15.65;8.48;;;;;;;;;;10183831;28;20070;-60
2022/03/22 18:20:12;;;;;;;10.02;6.78;;;;;;;;;;10178778;28;20104;-60
2022/03/22 18:25:11;;;;;;;13.52;8.38;;;;;;;;;;10181777;28;20476;-61
2022/03/22 18:30:10;;;;;;;11.88;7.20;;;;;;;;;;10186959;28;20081;-61
2022/03/22 18:35:11;;;;;;;19.63;12.35;;;;;;;;;;10181920;28;20322;-61
2022/03/22 18:40:09;;;;;;;21.40;12.75;;;;;;;;;;10185549;28;20084;-61
2022/03/22 18:45:10;;;;;;;19.38;13.13;;;;;;;;;;10186687;28;20402;-61
2022/03/22 18:50:12;;;;;;;15.68;11.93;;;;;;;;;;10192721;28;20224;-61
2022/03/22 18:55:10;;;;;;;19.85;12.43;;;;;;;;;;10191586;28;20454;-61
2022/03/22 19:00:09;;;;;;;16.85;9.98;;;;;;;;;;10167347;28;20485;-61
2022/03/22 19:05:10;;;;;;;15.80;10.88;;;;;;;;;;10174557;28;20109;-61
2022/03/22 19:10:09;;;;;;;43.60;25.58;;;;;;;;;;10160689;28;20043;-61
2022/03/22 19:15:08;;;;;;;29.05;20.83;;;;;;;;;;10158473;28;20069;-61
2022/03/22 19:20:07;;;;;;;33.25;20.23;;;;;;;;;;10165273;28;20084;-61
2022/03/22 19:25:09;;;;;;;20.45;12.23;;;;;;;;;;10164638;28;20084;-60
2022/03/22 19:30:08;;;;;;;19.45;11.40;;;;;;;;;;10174751;28;20066;-60
2022/03/22 19:35:07;;;;;;;23.63;15.30;;;;;;;;;;10162511;28;20077;-60
2022/03/22 19:40:05;;;;;;;26.88;15.88;;;;;;;;;;10168630;28;20080;-59
2022/03/22 19:45:06;;;;;;;26.15;16.83;;;;;;;;;;10184351;28;20108;-60
2022/03/22 19:50:04;;;;;;;18.13;11.38;;;;;;;;;;10184103;28;20081;-60
2022/03/22 19:55:04;;;;;;;19.48;13.13;;;;;;;;;;10179488;28;20084;-59
2022/03/22 20:00:03;;;;;;;25.83;13.32;;;;;;;;;;10190840;28;20049;-60
2022/03/22 20:05:11;;;;;;;21.45;13.73;;;;;;;;;;10192016;28;20086;-60
2022/03/22 20:10:10;;;;;;;15.43;10.02;;;;;;;;;;10192081;28;20081;-59
2022/03/22 20:15:10;;;;;;;12.82;7.85;;;;;;;;;;10185271;28;20092;-59
2022/03/22 20:20:09;;;;;;;18.58;12.70;;;;;;;;;;10166828;28;20108;-60
2022/03/22 20:25:09;;;;;;;15.25;11.10;;;;;;;;;;10177384;28;20097;-60
2022/03/22 20:30:08;;;;;;;24.65;16.77;;;;;;;;;;10172731;28;20073;-60
2022/03/22 20:35:07;;;;;;;33.38;19.77;;;;;;;;;;10179165;28;20069;-59
2022/03/22 20:40:06;;;;;;;33.35;22.00;;;;;;;;;;10172333;28;20073;-59
2022/03/22 20:45:10;;;;;;;29.42;20.73;;;;;;;;;;10167710;28;20062;-59
2022/03/22 20:50:09;;;;;;;24.35;16.27;;;;;;;;;;10164681;28;20062;-59
2022/03/22 20:55:08;;;;;;;36.08;21.55;;;;;;;;;;10165980;28;20073;-59
2022/03/22 21:00:09;;;;;;;49.53;32.92;;;;;;;;;;10190269;28;20076;-59
2022/03/22 21:05:08;;;;;;;42.63;29.35;;;;;;;;;;10190436;28;20078;-59
2022/03/22 21:10:07;;;;;;;112.32;50.97;;;;;;;;;;10192202;28;20080;-59
2022/03/22 21:15:06;;;;;;;81.47;41.17;;;;;;;;;;10189698;28;20080;-60
2022/03/22 21:20:08;;;;;;;176.20;85.90;;;;;;;;;;10189663;28;20073;-59
2022/03/22 21:25:07;;;;;;;39.38;25.70;;;;;;;;;;10188861;28;20080;-59
2022/03/22 21:30:06;;;;;;;48.05;26.58;;;;;;;;;;10195056;28;20075;-59
2022/03/22 21:35:06;;;;;;;65.22;29.48;;;;;;;;;;10168098;28;20070;-60
2022/03/22 21:40:07;;;;;;;87.03;39.58;;;;;;;;;;10162371;28;20545;-60
2022/03/22 21:45:06;;;;;;;70.40;35.40;;;;;;;;;;10165883;28;20081;-59
2022/03/22 21:50:06;;;;;;;79.70;45.00;;;;;;;;;;10161146;28;20073;-60
2022/03/22 21:55:05;;;;;;;39.10;23.70;;;;;;;;;;10164832;28;20487;-60
2022/03/22 22:00:06;;;;;;;53.13;33.42;;;;;;;;;;10164146;28;20070;-60
2022/03/22 22:05:06;;;;;;;40.40;26.95;;;;;;;;;;10169140;28;20073;-59
2022/03/22 22:10:04;;;;;;;47.33;27.63;;;;;;;;;;10165095;28;20499;-60
2022/03/22 22:15:04;;;;;;;18.70;12.38;;;;;;;;;;10165084;28;20085;-60
2022/03/22 22:20:04;;;;;;;21.17;10.98;;;;;;;;;;10177649;28;20077;-60
2022/03/22 22:25:04;;;;;;;17.95;11.65;;;;;;;;;;10191187;28;20495;-60
2022/03/22 22:30:05;;;;;;;16.65;11.88;;;;;;;;;;10189968;28;20078;-60
2022/03/22 22:35:03;;;;;;;13.88;10.13;;;;;;;;;;10189695;28;20080;-59
2022/03/22 22:40:02;;;;;;;17.35;9.90;;;;;;;;;;10194330;28;20503;-59
2022/03/22 22:45:01;;;;;;;15.35;10.55;;;;;;;;;;10193539;28;20537;-59
2022/03/22 22:50:00;;;;;;;27.05;14.25;;;;;;;;;;10193563;28;20092;-59
2022/03/22 22:55:01;;;;;;;17.88;12.27;;;;;;;;;;10193602;28;20080;-60
2022/03/22 23:00:05;;;;;;;21.08;11.75;;;;;;;;;;10193548;28;20053;-59
2022/03/22 23:05:05;;;;;;;15.50;10.57;;;;;;;;;;10188931;28;20084;-59
2022/03/22 23:10:16;;;;;;;15.52;8.75;;;;;;;;;;10189020;28;20148;-59
2022/03/22 23:15:15;;;;;;;15.60;10.90;;;;;;;;;;10189596;28;20074;-60
2022/03/22 23:20:14;;;;;;;25.05;10.88;;;;;;;;;;10189641;28;20085;-59
2022/03/22 23:25:13;;;;;;;20.52;10.73;;;;;;;;;;10189306;28;20089;-60
2022/03/22 23:30:11;;;;;;;19.05;10.00;;;;;;;;;;10192630;28;20089;-60
2022/03/22 23:35:11;;;;;;;15.77;10.88;;;;;;;;;;10192516;28;20511;-60
2022/03/22 23:40:11;;;;;;;27.92;12.93;;;;;;;;;;10186435;28;20081;-59
2022/03/22 23:45:11;;;;;;;19.17;11.65;;;;;;;;;;10191291;28;20046;-60
2022/03/22 23:50:10;;;;;;;19.75;9.30;;;;;;;;;;10192289;28;20081;-59
2022/03/22 23:55:08;;;;;;;13.23;9.40;;;;;;;;;;10193614;28;20077;-60
